CYXZ

Wawa Airport

Wawa, Ontario, Canada
METAR CYXZ 191154Z 19007KT 8SM SCT007 BKN014 01/00 A2971 RMK ST4SC2 SLP076
Observed Flight Rules
Dec-19 @ 11:54 UTC (14 minutes ago) Marginal Visual Flight Rules
Wind Visibility Clouds
190° at 7 knots 8 miles
  • Scattered at 700' AGL
  • Broken at 1,400' AGL
Temperatures Readings
Current 1°C / 34°F
Dewpoint 0°C / 32°F
Humidity 93%
Altimeter 29.71" Hg
Pressure 1007.6 hPa
Elevation 287
METAR CYXZ 191154Z 19007KT 8SM SCT007 BKN014 01/00 A2971 RMK ST4SC2 SLP076
Observed Flight Rules
Dec-19 @ 11:54 UTC
(14 minutes ago)
MVFR
Wind Visibility
190° at 7 knots 8 miles
Clouds
  • Scattered at 700' AGL
  • Broken at 1,400' AGL
Temperature Dewpoint
1°C / 34°F 0°C / 32°F
Humidity Altimeter Pressure
93% 29.71" Hg 1007.6 hPa